Time;durP1;ratioP1;P1;durP2;ratioP2;P2;SDS_P1;SDS_P2;PMS_P1;PMS_P2;Temp;Humidity;BMP_temperature;BMP_pressure;BME280_temperature;BME280_humidity;BME280_pressure;Samples;Min_cycle;Max_cycle;Signal;HPM_P1;HPM_P2
2023/07/13 00:02:08;;;;;;;1.92;0.73;;;;;;;17.99;56.59;101060.38;5043299;28;20108;-60
2023/07/13 00:04:33;;;;;;;4.70;0.80;;;;;;;17.91;56.93;101063.28;5037296;28;20035;-60
2023/07/13 00:06:59;;;;;;;2.75;1.13;;;;;;;17.86;57.05;101054.72;5039434;28;20049;-60
2023/07/13 00:09:24;;;;;;;2.90;0.70;;;;;;;17.83;57.40;101059.16;5035781;28;20044;-60
2023/07/13 00:11:52;;;;;;;3.25;1.02;;;;;;;17.79;57.48;101057.56;5043218;28;20036;-60
2023/07/13 00:14:18;;;;;;;2.25;1.05;;;;;;;17.74;57.78;101064.69;5037772;28;20040;-60
2023/07/13 00:16:44;;;;;;;2.45;1.10;;;;;;;17.71;57.91;101065.66;5035863;28;20036;-60
2023/07/13 00:19:11;;;;;;;4.80;1.15;;;;;;;17.67;57.88;101064.03;5040941;28;20037;-60
2023/07/13 00:21:37;;;;;;;2.50;0.95;;;;;;;17.63;58.28;101062.41;5043258;28;20132;-60
2023/07/13 00:24:02;;;;;;;3.90;1.10;;;;;;;17.60;58.49;101066.91;5037163;28;20039;-60
2023/07/13 00:26:28;;;;;;;2.83;1.05;;;;;;;17.55;58.56;101067.06;5033841;28;20285;-60
2023/07/13 00:28:53;;;;;;;2.78;1.08;;;;;;;17.51;58.78;101064.59;5041728;28;20016;-60
2023/07/13 00:31:19;;;;;;;5.72;1.20;;;;;;;17.47;58.73;101061.22;5035525;28;20033;-60
2023/07/13 00:33:44;;;;;;;3.67;1.02;;;;;;;17.44;58.95;101063.94;5040079;28;20522;-60
2023/07/13 00:36:10;;;;;;;5.13;1.63;;;;;;;17.39;59.25;101063.22;5036147;28;20192;-61
2023/07/13 00:38:36;;;;;;;2.78;1.08;;;;;;;17.33;59.44;101064.25;5039630;28;20044;-60
2023/07/13 00:41:03;;;;;;;5.80;1.17;;;;;;;17.30;59.56;101060.91;5038086;28;20125;-60
2023/07/13 00:43:30;;;;;;;3.08;1.23;;;;;;;17.27;59.79;101056.63;5037643;28;20612;-60
2023/07/13 00:45:58;;;;;;;3.75;1.10;;;;;;;17.25;59.66;101061.03;5039410;28;20044;-60
2023/07/13 00:48:30;;;;;;;5.82;1.10;;;;;;;17.25;59.75;101047.97;5036739;28;20052;-60
2023/07/13 00:51:00;;;;;;;5.93;1.02;;;;;;;17.23;59.76;101051.53;5032302;28;20122;-61
2023/07/13 00:53:29;;;;;;;6.35;1.42;;;;;;;17.19;59.75;101037.72;5033805;28;20048;-60
2023/07/13 00:55:56;;;;;;;1.98;0.80;;;;;;;17.17;59.84;101042.13;5037211;28;21652;-60
2023/07/13 00:58:22;;;;;;;2.70;1.15;;;;;;;17.14;59.85;101038.75;5037190;28;20040;-61
2023/07/13 01:00:48;;;;;;;6.57;1.00;;;;;;;17.07;60.07;101038.09;5039925;28;20037;-60
2023/07/13 01:03:15;;;;;;;5.70;1.40;;;;;;;17.05;60.23;101046.88;5039877;28;20053;-60
2023/07/13 01:05:40;;;;;;;1.55;0.90;;;;;;;16.99;60.70;101047.06;5035018;28;20045;-60
2023/07/13 01:08:06;;;;;;;2.70;1.23;;;;;;;16.94;60.74;101047.22;5037678;28;20093;-61
2023/07/13 01:10:38;;;;;;;3.95;1.10;;;;;;;16.90;61.16;101047.34;5035028;28;20029;-60
2023/07/13 01:13:07;;;;;;;1.92;0.70;;;;;;;16.85;61.00;101057.94;5037842;28;20092;-60
2023/07/13 01:15:38;;;;;;;4.75;1.20;;;;;;;16.83;61.48;101055.34;5036701;28;20029;-60
2023/07/13 01:18:11;;;;;;;3.83;1.25;;;;;;;16.79;61.55;101053.75;5040185;28;20033;-60
2023/07/13 01:20:37;;;;;;;2.40;1.00;;;;;;;16.77;61.82;101049.47;5040138;28;20191;-61
2023/07/13 01:23:08;;;;;;;3.53;1.23;;;;;;;16.75;61.50;101052.06;5038730;28;20165;-60
2023/07/13 01:25:37;;;;;;;3.00;0.93;;;;;;;16.75;61.76;101057.28;5036111;28;20040;-60
2023/07/13 01:28:05;;;;;;;5.38;1.48;;;;;;;16.72;62.05;101057.38;5037254;28;20064;-60
2023/07/13 01:30:31;;;;;;;6.53;1.10;;;;;;;16.69;62.19;101054.88;5036539;28;20049;-60
2023/07/13 01:32:57;;;;;;;5.43;1.30;;;;;;;16.66;62.44;101054.09;5037736;28;20041;-60
2023/07/13 01:35:23;;;;;;;6.97;1.30;;;;;;;16.67;61.98;101053.19;5034114;28;20033;-60
2023/07/13 01:37:48;;;;;;;2.50;1.23;;;;;;;16.67;62.17;101050.59;5036500;28;20040;-60
2023/07/13 01:40:13;;;;;;;4.68;1.02;;;;;;;16.66;61.90;101036.69;5034754;28;20157;-60
2023/07/13 01:42:40;;;;;;;1.90;1.10;;;;;;;16.65;62.29;101039.34;5038678;28;20543;-61
2023/07/13 01:45:05;;;;;;;3.90;1.15;;;;;;;16.64;62.16;101038.50;5036742;28;20047;-60
2023/07/13 01:47:31;;;;;;;5.85;1.77;;;;;;;16.62;62.38;101040.25;5036921;28;20037;-60
2023/07/13 01:49:57;;;;;;;6.95;1.42;;;;;;;16.61;62.36;101042.94;5037874;28;20037;-61
2023/07/13 01:52:23;;;;;;;3.13;0.88;;;;;;;16.62;62.51;101040.25;5031838;28;20573;-60
2023/07/13 01:54:48;;;;;;;7.90;1.77;;;;;;;16.61;63.50;101051.63;5039732;28;20041;-60
2023/07/13 01:57:14;;;;;;;2.50;1.02;;;;;;;16.57;63.48;101051.75;5042433;28;20047;-60
2023/07/13 01:59:39;;;;;;;6.50;1.52;;;;;;;16.55;63.26;101048.31;5031176;28;20040;-61
2023/07/13 02:02:04;;;;;;;2.42;0.90;;;;;;;16.52;63.38;101046.66;5040179;28;20071;-60
2023/07/13 02:04:30;;;;;;;3.22;1.13;;;;;;;16.49;63.27;101040.66;5043997;28;20036;-60
2023/07/13 02:06:55;;;;;;;4.50;1.30;;;;;;;16.50;63.07;101040.66;5037879;28;20060;-60
2023/07/13 02:09:21;;;;;;;4.47;1.02;;;;;;;16.51;63.04;101033.66;5042034;28;20041;-61
2023/07/13 02:11:46;;;;;;;4.88;1.50;;;;;;;16.52;63.46;101045.81;5039280;28;20037;-60
2023/07/13 02:14:11;;;;;;;4.40;1.00;;;;;;;16.55;63.30;101036.13;5040295;28;20041;-61
2023/07/13 02:16:37;;;;;;;3.15;1.30;;;;;;;16.56;62.86;101040.44;5041030;28;20402;-60
2023/07/13 02:19:02;;;;;;;3.83;1.45;;;;;;;16.58;62.78;101036.06;5038956;28;20152;-60
2023/07/13 02:21:28;;;;;;;3.38;0.90;;;;;;;16.59;63.04;101040.34;5036780;28;20254;-60
2023/07/13 02:23:54;;;;;;;3.55;1.38;;;;;;;16.57;63.28;101030.88;5043140;28;20032;-61
2023/07/13 02:26:20;;;;;;;6.00;1.42;;;;;;;16.56;62.78;101032.63;5036870;28;20502;-60
2023/07/13 02:28:45;;;;;;;3.30;1.00;;;;;;;16.58;62.98;101033.44;5040684;28;20033;-60
2023/07/13 02:31:13;;;;;;;2.92;1.00;;;;;;;16.60;62.76;101034.25;5040351;28;20041;-60
2023/07/13 02:33:39;;;;;;;3.67;1.27;;;;;;;16.61;62.31;101025.53;5037868;28;20102;-60
2023/07/13 02:36:05;;;;;;;5.22;1.52;;;;;;;16.63;62.73;101033.28;5037409;28;20575;-60
2023/07/13 02:38:33;;;;;;;4.10;1.25;;;;;;;16.64;62.63;101027.19;5041068;28;20048;-61
2023/07/13 02:40:59;;;;;;;4.93;1.52;;;;;;;16.64;62.58;101022.81;5043302;28;20499;-61
2023/07/13 02:43:24;;;;;;;2.33;1.02;;;;;;;16.63;62.83;101020.25;5035942;28;20037;-61
2023/07/13 02:45:50;;;;;;;4.65;1.27;;;;;;;16.62;62.70;101024.59;5038620;28;20804;-61
2023/07/13 02:48:15;;;;;;;4.32;1.08;;;;;;;16.61;62.72;101022.06;5040247;28;20050;-60
2023/07/13 02:50:40;;;;;;;3.13;0.95;;;;;;;16.58;63.34;101030.84;5037722;28;20048;-60
2023/07/13 02:53:06;;;;;;;2.67;1.30;;;;;;;16.55;63.25;101028.31;5033611;28;20026;-60
2023/07/13 02:55:31;;;;;;;5.10;1.20;;;;;;;16.53;63.74;101035.34;5037431;28;20036;-60
2023/07/13 02:57:57;;;;;;;3.72;1.48;;;;;;;16.52;63.91;101037.97;5039901;28;20049;-60
2023/07/13 03:00:22;;;;;;;4.95;1.23;;;;;;;16.53;63.63;101043.16;5035392;28;20044;-60
2023/07/13 03:02:48;;;;;;;1.90;0.90;;;;;;;16.51;63.98;101042.34;5039407;28;20043;-60
2023/07/13 03:05:14;;;;;;;3.55;1.27;;;;;;;16.49;64.17;101048.50;5033505;28;20040;-61
2023/07/13 03:07:40;;;;;;;3.58;1.20;;;;;;;16.44;63.79;101038.22;5041210;28;20402;-60
2023/07/13 03:10:06;;;;;;;2.83;1.15;;;;;;;16.39;64.02;101041.81;5037345;28;20068;-60
2023/07/13 03:12:32;;;;;;;2.05;1.00;;;;;;;16.33;64.12;101037.63;5032515;28;20504;-60
2023/07/13 03:14:57;;;;;;;3.53;1.20;;;;;;;16.26;64.39;101047.41;5033845;28;20041;-60
2023/07/13 03:17:23;;;;;;;4.07;1.23;;;;;;;16.23;64.15;101057.06;5033198;28;20037;-60
2023/07/13 03:19:50;;;;;;;4.03;1.02;;;;;;;16.21;64.34;101059.69;5031395;28;20037;-60
2023/07/13 03:22:17;;;;;;;4.03;1.30;;;;;;;16.20;64.26;101057.13;5029866;28;20029;-60
2023/07/13 03:24:43;;;;;;;5.75;1.38;;;;;;;16.17;64.28;101060.69;5037269;28;20045;-61
2023/07/13 03:27:08;;;;;;;6.53;1.48;;;;;;;16.19;64.39;101065.84;5033605;28;20118;-60
2023/07/13 03:29:33;;;;;;;4.43;1.15;;;;;;;16.23;63.98;101055.31;5043540;28;20045;-60
2023/07/13 03:31:59;;;;;;;4.22;1.15;;;;;;;16.27;63.44;101056.91;5038535;28;20171;-60
2023/07/13 03:34:24;;;;;;;3.67;1.33;;;;;;;16.33;63.32;101053.28;5034852;28;20106;-61
2023/07/13 03:36:50;;;;;;;1.60;0.93;;;;;;;16.39;63.15;101057.47;5032483;28;20143;-61
2023/07/13 03:39:15;;;;;;;4.97;1.23;;;;;;;16.45;63.10;101045.13;5035251;28;20044;-61
2023/07/13 03:41:41;;;;;;;3.83;1.40;;;;;;;16.52;63.00;101046.66;5036892;28;20044;-60
2023/07/13 03:44:06;;;;;;;4.30;1.38;;;;;;;16.57;63.07;101044.78;5036009;28;20549;-61
2023/07/13 03:46:33;;;;;;;4.45;1.50;;;;;;;16.63;63.31;101054.19;5031573;28;20580;-60
2023/07/13 03:48:59;;;;;;;4.20;1.13;;;;;;;16.71;62.36;101044.41;5049629;28;20058;-60
2023/07/13 03:51:24;;;;;;;3.90;1.55;;;;;;;16.76;62.30;101043.34;5032282;28;20033;-60
2023/07/13 03:53:49;;;;;;;4.85;1.00;;;;;;;16.81;62.21;101036.28;5034706;28;20187;-61
2023/07/13 03:56:17;;;;;;;6.38;1.20;;;;;;;16.83;62.28;101046.66;5033199;28;20033;-61
2023/07/13 03:58:45;;;;;;;6.30;1.15;;;;;;;16.85;61.71;101043.13;5043332;28;20029;-60
2023/07/13 04:01:12;;;;;;;4.95;1.70;;;;;;;16.86;61.60;101041.34;5038544;28;20033;-60
2023/07/13 04:03:38;;;;;;;5.75;1.25;;;;;;;16.88;61.82;101046.53;5033870;28;20457;-60
2023/07/13 04:06:06;;;;;;;3.80;1.05;;;;;;;16.88;61.42;101041.31;5034477;28;20494;-60
2023/07/13 04:08:36;;;;;;;4.28;1.50;;;;;;;16.86;62.08;101047.41;5030128;28;20057;-60
2023/07/13 04:11:04;;;;;;;3.72;1.25;;;;;;;16.84;62.23;101054.47;5030699;28;20036;-60
2023/07/13 04:13:29;;;;;;;3.97;1.33;;;;;;;16.83;62.25;101063.19;5032886;28;20044;-60
2023/07/13 04:15:55;;;;;;;4.22;1.05;;;;;;;16.85;62.76;101071.84;5032913;28;20394;-60
2023/07/13 04:18:21;;;;;;;3.15;1.30;;;;;;;16.86;62.50;101068.31;5032814;28;20170;-60
2023/07/13 04:20:47;;;;;;;3.28;1.20;;;;;;;16.88;62.54;101068.28;5032962;28;20068;-60
2023/07/13 04:23:13;;;;;;;3.13;1.33;;;;;;;16.92;62.55;101064.66;5032336;28;20033;-61
2023/07/13 04:25:38;;;;;;;2.53;1.15;;;;;;;16.94;62.90;101073.31;5032838;28;20032;-60
2023/07/13 04:28:05;;;;;;;4.00;1.50;;;;;;;16.97;62.96;101069.75;5032095;28;20724;-61
2023/07/13 04:30:30;;;;;;;3.45;1.13;;;;;;;16.99;62.89;101070.56;5038447;28;20089;-60
2023/07/13 04:32:56;;;;;;;2.70;0.85;;;;;;;17.03;62.60;101074.81;5035451;28;20104;-61
2023/07/13 04:35:21;;;;;;;4.18;1.05;;;;;;;17.05;62.57;101071.25;5033833;28;20031;-61
2023/07/13 04:37:50;;;;;;;3.58;1.50;;;;;;;17.08;62.58;101073.75;5038501;28;20028;-60
2023/07/13 04:40:16;;;;;;;4.00;1.33;;;;;;;17.12;63.08;101079.75;5035919;28;20056;-61
2023/07/13 04:42:42;;;;;;;2.88;1.02;;;;;;;17.17;62.84;101083.06;5034174;28;20029;-61
2023/07/13 04:45:07;;;;;;;4.97;1.60;;;;;;;17.20;62.78;101082.97;5035418;28;20047;-61
2023/07/13 04:47:33;;;;;;;5.60;2.10;;;;;;;17.25;62.95;101078.47;5030317;28;20087;-60
2023/07/13 04:49:58;;;;;;;4.40;1.27;;;;;;;17.29;62.92;101080.09;5032835;28;20044;-60
2023/07/13 04:52:24;;;;;;;2.25;1.20;;;;;;;17.31;62.88;101084.34;5032488;28;20764;-60
2023/07/13 04:54:49;;;;;;;3.08;1.08;;;;;;;17.34;62.94;101084.25;5038355;28;20040;-61
2023/07/13 04:57:15;;;;;;;4.15;1.38;;;;;;;17.38;62.71;101082.41;5040296;28;20573;-60
2023/07/13 04:59:40;;;;;;;2.58;1.23;;;;;;;17.40;62.76;101080.59;5037164;28;20051;-61
2023/07/13 05:02:06;;;;;;;3.72;1.30;;;;;;;17.44;62.63;101090.06;5034716;28;20063;-61
2023/07/13 05:04:31;;;;;;;8.30;1.40;;;;;;;17.48;62.52;101083.00;5036859;28;20035;-60
2023/07/13 05:06:57;;;;;;;4.45;1.17;;;;;;;17.51;62.38;101088.97;5032889;28;20033;-61
2023/07/13 05:09:22;;;;;;;2.40;1.00;;;;;;;17.58;62.64;101093.09;5034387;28;20040;-61
2023/07/13 05:11:47;;;;;;;5.22;1.40;;;;;;;17.60;62.59;101091.28;5035115;28;20040;-62
2023/07/13 05:14:13;;;;;;;4.43;1.30;;;;;;;17.62;62.41;101086.00;5038823;28;20040;-61
2023/07/13 05:16:38;;;;;;;4.20;1.80;;;;;;;17.69;62.41;101082.31;5034404;28;20139;-60
2023/07/13 05:19:03;;;;;;;4.55;1.35;;;;;;;17.74;62.18;101083.00;5036550;28;20611;-60
2023/07/13 05:21:29;;;;;;;7.75;1.88;;;;;;;17.77;62.28;101081.16;5035565;28;20724;-60
2023/07/13 05:23:54;;;;;;;6.85;1.67;;;;;;;17.79;62.00;101081.94;5031248;28;20045;-60
2023/07/13 05:26:20;;;;;;;6.07;1.38;;;;;;;17.84;62.21;101090.53;5036254;28;20098;-60
2023/07/13 05:28:46;;;;;;;6.95;1.73;;;;;;;17.93;61.98;101081.50;5039043;28;20040;-60
2023/07/13 05:31:11;;;;;;;7.35;2.15;;;;;;;17.95;61.67;101077.97;5036992;28;20048;-61
2023/07/13 05:33:37;;;;;;;7.35;1.30;;;;;;;17.99;61.26;101078.69;5028015;28;20410;-60
2023/07/13 05:36:02;;;;;;;3.45;1.58;;;;;;;18.07;61.62;101086.28;5028273;28;20477;-60
2023/07/13 05:38:28;;;;;;;4.43;1.40;;;;;;;18.18;61.63;101092.00;5041113;28;20056;-61
2023/07/13 05:40:55;;;;;;;5.18;1.55;;;;;;;18.31;61.43;101082.84;5036961;28;20028;-60
2023/07/13 05:43:22;;;;;;;8.10;1.83;;;;;;;18.36;60.73;101073.91;5037138;28;20033;-60
2023/07/13 05:45:48;;;;;;;3.08;1.30;;;;;;;18.48;60.89;101077.84;5035548;28;20037;-60
2023/07/13 05:48:14;;;;;;;6.05;1.30;;;;;;;18.47;60.96;101076.13;5035053;28;20406;-60
2023/07/13 05:50:40;;;;;;;6.15;1.45;;;;;;;18.58;60.94;101076.63;5033257;28;20043;-60
2023/07/13 05:53:06;;;;;;;6.05;1.75;;;;;;;18.69;60.28;101070.97;5033341;28;20033;-61
2023/07/13 05:55:31;;;;;;;5.93;1.73;;;;;;;18.77;60.13;101066.31;5036060;28;20120;-60
2023/07/13 05:57:58;;;;;;;3.80;1.25;;;;;;;18.83;59.77;101055.59;5038448;28;20044;-60
2023/07/13 06:00:24;;;;;;;7.03;1.83;;;;;;;18.81;59.93;101065.28;5036991;28;20032;-60
2023/07/13 06:02:49;;;;;;;4.95;1.30;;;;;;;18.86;60.11;101071.22;5035895;28;20036;-60
2023/07/13 06:05:15;;;;;;;5.28;1.70;;;;;;;18.94;60.27;101085.75;5033980;28;20033;-60
2023/07/13 06:07:41;;;;;;;5.07;1.50;;;;;;;19.07;59.72;101079.16;5034145;28;20123;-60
2023/07/13 06:10:07;;;;;;;5.25;1.45;;;;;;;19.19;59.97;101075.19;5033318;28;20081;-60
2023/07/13 06:12:32;;;;;;;4.55;1.55;;;;;;;19.37;58.94;101069.25;5036477;28;20049;-60
2023/07/13 06:14:57;;;;;;;4.47;1.35;;;;;;;19.47;58.56;101065.31;5037276;28;20083;-60
2023/07/13 06:17:23;;;;;;;7.93;1.60;;;;;;;19.62;58.53;101066.50;5038874;28;20060;-60
2023/07/13 06:19:48;;;;;;;4.47;1.60;;;;;;;19.76;58.08;101064.16;5041561;28;20039;-60
2023/07/13 06:22:13;;;;;;;3.92;1.50;;;;;;;19.90;57.72;101067.09;5036351;28;20032;-63
2023/07/13 06:24:39;;;;;;;3.63;1.08;;;;;;;20.00;57.72;101060.53;5034876;28;20033;-62
2023/07/13 06:27:04;;;;;;;4.38;1.40;;;;;;;20.18;57.45;101061.53;5037548;28;20068;-64
2023/07/13 06:29:30;;;;;;;5.20;1.50;;;;;;;20.27;56.49;101050.63;5042032;28;20495;-62
2023/07/13 06:31:55;;;;;;;3.75;1.15;;;;;;;20.23;56.33;101053.44;5038565;28;20148;-63
2023/07/13 06:34:21;;;;;;;8.85;1.95;;;;;;;20.22;56.46;101057.81;5035102;28;20805;-63
2023/07/13 06:36:46;;;;;;;6.53;1.77;;;;;;;20.25;56.82;101068.19;5030321;28;20061;-63
2023/07/13 06:39:11;;;;;;;5.97;1.55;;;;;;;20.35;56.62;101064.25;5033448;28;20049;-63
2023/07/13 06:41:38;;;;;;;4.55;1.27;;;;;;;20.51;55.50;101049.50;5038229;28;20414;-63
2023/07/13 06:44:04;;;;;;;7.45;1.75;;;;;;;20.66;55.73;101056.72;5040740;28;20486;-63
2023/07/13 06:46:29;;;;;;;7.30;1.60;;;;;;;20.74;55.22;101047.69;5034790;28;20039;-63
2023/07/13 06:48:55;;;;;;;5.93;1.77;;;;;;;20.65;54.26;101041.91;5032369;28;20122;-63
2023/07/13 06:51:21;;;;;;;6.10;1.42;;;;;;;20.78;54.42;101041.38;5025714;28;20108;-62
2023/07/13 06:53:46;;;;;;;4.47;1.33;;;;;;;20.83;54.07;101042.84;5024707;28;20098;-63
2023/07/13 06:56:11;;;;;;;4.30;1.15;;;;;;;20.88;54.45;101051.38;5032693;28;20047;-63
2023/07/13 06:58:37;;;;;;;5.97;1.83;;;;;;;21.01;54.07;101049.88;5035356;28;20033;-63
2023/07/13 07:01:04;;;;;;;3.40;1.60;;;;;;;21.05;54.10;101047.94;5035669;28;20068;-62
2023/07/13 07:03:29;;;;;;;5.60;1.23;;;;;;;21.04;54.18;101059.41;5032008;28;20670;-63
2023/07/13 07:06:00;;;;;;;3.67;1.65;;;;;;;21.00;53.75;101058.69;5030590;28;20091;-63
2023/07/13 07:08:26;;;;;;;3.60;1.25;;;;;;;21.00;53.89;101057.84;5030142;28;20826;-63
2023/07/13 07:10:53;;;;;;;5.75;1.40;;;;;;;20.84;54.54;101073.44;5031797;28;20045;-64
2023/07/13 07:13:19;;;;;;;4.47;1.13;;;;;;;20.87;53.93;101057.53;5034459;28;20041;-63
2023/07/13 07:15:44;;;;;;;4.18;1.17;;;;;;;20.95;53.96;101063.31;5032406;28;20110;-64
2023/07/13 07:18:10;;;;;;;3.50;1.35;;;;;;;21.04;53.76;101062.03;5028415;28;20045;-63
2023/07/13 07:20:35;;;;;;;6.05;1.50;;;;;;;21.05;54.28;101071.59;5039311;28;20045;-63
2023/07/13 07:23:01;;;;;;;5.10;1.50;;;;;;;21.02;53.93;101063.84;5033387;28;20066;-62
2023/07/13 07:25:26;;;;;;;3.58;1.40;;;;;;;20.83;54.19;101069.13;5032121;28;20541;-63
2023/07/13 07:27:51;;;;;;;7.68;1.80;;;;;;;20.72;53.96;101081.88;5036740;28;20628;-63
2023/07/13 07:30:17;;;;;;;6.65;1.83;;;;;;;20.64;54.94;101102.34;5034057;28;20136;-63
2023/07/13 07:32:42;;;;;;;6.53;1.85;;;;;;;20.68;54.73;101090.81;5033717;28;20147;-62
2023/07/13 07:35:07;;;;;;;6.10;1.70;;;;;;;20.73;55.08;101096.72;5031032;28;22436;-62
2023/07/13 07:37:33;;;;;;;4.22;1.50;;;;;;;20.78;55.43;101104.41;5031668;28;20421;-62
2023/07/13 07:39:59;;;;;;;5.15;1.42;;;;;;;20.82;55.67;101105.97;5030425;28;20098;-63
2023/07/13 07:42:25;;;;;;;6.15;1.73;;;;;;;20.81;55.34;101093.78;5034355;28;20679;-62
2023/07/13 07:44:50;;;;;;;4.68;1.40;;;;;;;20.81;55.45;101099.03;5034375;28;20813;-63
2023/07/13 07:47:15;;;;;;;6.80;1.48;;;;;;;20.87;55.85;101110.09;5032512;28;20190;-62
2023/07/13 07:49:41;;;;;;;8.65;1.75;;;;;;;20.94;55.60;101105.41;5031517;28;20045;-62
2023/07/13 07:52:07;;;;;;;5.68;1.30;;;;;;;20.92;55.21;101095.00;5032841;28;20029;-63
2023/07/13 07:54:32;;;;;;;4.35;1.40;;;;;;;21.12;54.97;101094.91;5031857;28;20045;-63
2023/07/13 07:56:57;;;;;;;6.60;1.70;;;;;;;21.32;54.00;101083.44;5036982;28;20071;-63
2023/07/13 07:59:23;;;;;;;3.28;1.10;;;;;;;21.42;53.37;101063.69;5032845;28;20390;-63
2023/07/13 08:01:50;;;;;;;7.78;1.95;;;;;;;21.65;53.16;101065.22;5041192;28;20694;-63
2023/07/13 08:04:15;;;;;;;7.28;1.63;;;;;;;22.11;52.38;101050.63;5043193;28;20055;-63
2023/07/13 08:06:41;;;;;;;9.52;1.60;;;;;;;22.31;51.48;101034.63;5045326;28;20037;-62
2023/07/13 08:09:07;;;;;;;6.18;1.70;;;;;;;22.52;51.28;101032.66;5037636;28;20123;-63
2023/07/13 08:11:33;;;;;;;5.30;1.40;;;;;;;22.74;50.85;101030.59;5034889;28;20037;-63
2023/07/13 08:13:58;;;;;;;3.20;1.13;;;;;;;22.99;49.88;101022.19;5038112;28;20059;-63
2023/07/13 08:16:24;;;;;;;6.68;1.40;;;;;;;23.29;49.26;101016.06;5035331;28;20033;-62
2023/07/13 08:18:49;;;;;;;3.78;1.45;;;;;;;23.09;49.20;101003.13;5040916;28;20502;-63
2023/07/13 08:21:15;;;;;;;5.28;1.70;;;;;;;22.98;49.26;101017.84;5036221;28;20068;-63
2023/07/13 08:23:40;;;;;;;4.78;1.90;;;;;;;23.01;49.29;101017.66;5031197;28;20138;-63
2023/07/13 08:26:06;;;;;;;4.90;1.70;;;;;;;23.03;49.06;101008.75;5036621;28;20067;-62
2023/07/13 08:28:33;;;;;;;5.57;1.38;;;;;;;23.08;48.42;101000.56;5039533;28;20036;-63
2023/07/13 08:31:03;;;;;;;4.93;1.35;;;;;;;23.27;48.60;101002.09;5041791;28;20066;-62
2023/07/13 08:33:28;;;;;;;6.80;1.65;;;;;;;23.16;48.14;100990.44;5039396;28;20037;-63
2023/07/13 08:35:54;;;;;;;7.80;1.80;;;;;;;23.25;48.17;100990.78;5039140;28;20037;-63
2023/07/13 08:38:19;;;;;;;4.30;1.42;;;;;;;23.24;47.54;100985.63;5037067;28;20035;-62
2023/07/13 08:40:51;;;;;;;7.35;1.40;;;;;;;23.42;47.60;100982.75;5035845;28;20037;-63
2023/07/13 08:43:20;;;;;;;3.55;1.27;;;;;;;23.49;47.37;100987.69;5037401;28;20036;-63
2023/07/13 08:46:05;;;;;;;3.83;1.10;;;;;;;23.65;47.07;100983.22;5037395;28;20752;-63
2023/07/13 08:48:43;;;;;;;3.88;1.25;;;;;;;23.57;46.82;100973.09;5040464;28;20045;-63
2023/07/13 08:51:39;;;;;;;4.45;1.25;;;;;;;23.74;47.12;100987.97;5033703;28;20045;-63
2023/07/13 08:54:16;;;;;;;4.05;1.48;;;;;;;23.66;46.30;100974.38;5027251;28;20415;-63
2023/07/13 08:56:44;;;;;;;4.88;1.40;;;;;;;23.88;46.56;100978.28;5035529;28;20676;-63
2023/07/13 08:59:18;;;;;;;6.43;1.25;;;;;;;24.12;45.36;100954.84;5035556;28;20033;-62
2023/07/13 09:02:02;;;;;;;7.40;1.48;;;;;;;23.98;46.71;100986.53;5036143;28;20029;-63
2023/07/13 09:04:37;;;;;;;5.07;1.75;;;;;;;23.50;47.58;100999.94;5032318;28;20037;-63
2023/07/13 09:07:20;;;;;;;4.22;1.40;;;;;;;23.24;48.04;101004.94;5039917;28;20469;-62
2023/07/13 09:10:02;;;;;;;3.15;1.35;;;;;;;23.66;48.49;101008.69;5036233;28;20036;-63
2023/07/13 09:12:46;;;;;;;3.88;1.40;;;;;;;23.95;46.42;100981.44;5034662;28;20033;-63
2023/07/13 09:15:25;;;;;;;4.18;1.50;;;;;;;23.98;46.33;100981.25;5036062;28;20037;-63
2023/07/13 09:17:55;;;;;;;3.78;1.20;;;;;;;23.88;46.40;100999.41;5033806;28;20037;-63
2023/07/13 09:20:58;;;;;;;4.05;1.20;;;;;;;24.06;47.23;101002.75;5033969;28;20108;-62
2023/07/13 09:23:28;;;;;;;4.40;1.45;;;;;;;24.05;45.98;100989.63;4993336;28;20033;-63
2023/07/13 09:26:02;;;;;;;5.03;1.60;;;;;;;23.92;46.38;100987.72;5028164;28;20089;-62
2023/07/13 09:28:31;;;;;;;7.35;1.60;;;;;;;23.83;46.96;101000.59;5037079;28;20037;-62
2023/07/13 09:31:15;;;;;;;6.18;1.42;;;;;;;23.81;46.93;100999.84;5032311;28;20067;-63
2023/07/13 09:33:41;;;;;;;3.30;1.42;;;;;;;23.76;46.61;100993.97;5036326;28;20053;-63
2023/07/13 09:36:23;;;;;;;4.85;1.40;;;;;;;23.66;46.78;100993.66;5034535;28;20115;-64
2023/07/13 09:39:02;;;;;;;3.47;1.08;;;;;;;23.63;46.95;100993.84;5036080;28;20065;-63
2023/07/13 09:41:47;;;;;;;4.57;1.70;;;;;;;23.56;47.94;101012.78;5031656;28;20037;-63
2023/07/13 09:44:17;;;;;;;;;;;;;;;23.47;47.82;101014.16;5030178;28;20025;-63
2023/07/13 09:46:54;;;;;;;6.20;1.50;;;;;;;23.56;47.66;101011.00;5034706;28;19956;-62
2023/07/13 09:49:24;;;;;;;5.22;1.48;;;;;;;23.47;47.92;101010.66;5035810;28;20044;-62
2023/07/13 09:51:59;;;;;;;3.78;1.42;;;;;;;23.40;47.82;101018.09;5036006;28;20132;-62
2023/07/13 09:54:25;;;;;;;7.57;1.60;;;;;;;23.48;47.77;101020.31;5039858;28;20069;-61
2023/07/13 09:56:58;;;;;;;6.13;2.00;;;;;;;23.63;47.77;101025.53;5036386;28;20148;-61
2023/07/13 09:59:29;;;;;;;4.18;1.20;;;;;;;24.24;46.28;100991.06;5039264;28;20040;-62
2023/07/13 10:01:55;;;;;;;5.20;1.42;;;;;;;24.42;45.69;100982.00;5035179;28;20528;-62
2023/07/13 10:04:31;;;;;;;9.05;1.80;;;;;;;24.41;46.25;101000.59;5028131;28;20036;-62
2023/07/13 10:07:15;;;;;;;3.80;1.25;;;;;;;24.23;45.85;100999.06;5034137;28;20097;-62
2023/07/13 10:09:40;;;;;;;5.90;1.30;;;;;;;24.02;46.96;101010.97;5034043;28;20059;-62
2023/07/13 10:12:15;;;;;;;4.88;1.50;;;;;;;23.80;47.00;101022.78;5035428;28;20042;-62
2023/07/13 10:14:41;;;;;;;;;;;;;;;23.66;48.69;101049.09;5028330;28;20063;-62
2023/07/13 10:17:13;;;;;;;5.93;1.33;;;;;;;23.70;47.39;101032.16;5030580;28;19923;-62
2023/07/13 10:19:43;;;;;;;5.55;1.85;;;;;;;23.86;47.29;101022.41;5030586;28;20035;-62
2023/07/13 10:22:25;;;;;;;4.47;1.40;;;;;;;24.03;46.57;101016.13;5030725;28;20024;-62
2023/07/13 10:24:51;;;;;;;4.15;1.30;;;;;;;24.14;45.91;101005.78;5030002;28;20052;-62
2023/07/13 10:27:28;;;;;;;6.43;1.75;;;;;;;24.26;46.26;101007.66;5034064;28;20092;-62
2023/07/13 10:30:19;;;;;;;4.40;1.30;;;;;;;24.91;44.36;100984.22;5030618;28;20128;-62
2023/07/13 10:32:46;;;;;;;3.67;1.60;;;;;;;24.70;43.88;100975.03;5031022;28;20827;-61
2023/07/13 10:35:13;;;;;;;5.40;1.00;;;;;;;24.42;44.53;100995.22;5033679;28;20043;-61
2023/07/13 10:37:50;;;;;;;3.38;1.40;;;;;;;24.31;45.15;100999.47;5033556;28;20032;-62
2023/07/13 10:40:21;;;;;;;4.95;1.73;;;;;;;24.46;44.88;101006.47;5030161;28;20044;-62
2023/07/13 10:42:50;;;;;;;1.85;1.00;;;;;;;24.32;44.25;100987.94;5033300;28;20135;-61
2023/07/13 10:45:18;;;;;;;7.57;1.30;;;;;;;24.30;44.80;101003.91;5029818;28;20084;-62
2023/07/13 10:47:44;;;;;;;4.20;1.58;;;;;;;24.36;45.20;101005.31;5034438;28;20560;-62
2023/07/13 10:50:20;;;;;;;5.30;1.92;;;;;;;24.33;45.07;100997.59;5031352;28;20048;-62
2023/07/13 10:52:51;;;;;;;5.10;1.00;;;;;;;24.25;43.39;100978.72;5033337;28;20033;-61
2023/07/13 10:55:38;;;;;;;2.78;0.90;;;;;;;24.31;43.38;100987.09;5031535;28;20048;-62
2023/07/13 10:58:14;;;;;;;4.68;0.93;;;;;;;24.42;41.76;100970.59;5032147;28;20124;-62
2023/07/13 11:01:06;;;;;;;2.05;1.02;;;;;;;24.13;40.85;100953.91;5033312;28;20045;-62
2023/07/13 11:03:45;;;;;;;3.63;1.10;;;;;;;24.57;40.76;100955.56;5033511;28;20638;-62
2023/07/13 11:06:23;;;;;;;4.43;0.85;;;;;;;24.45;41.01;100952.75;5032382;28;20196;-61
2023/07/13 11:08:48;;;;;;;2.90;0.90;;;;;;;24.46;41.53;100974.75;5027042;28;20068;-62
2023/07/13 11:11:29;;;;;;;2.42;0.75;;;;;;;24.40;40.88;100973.31;5032822;28;20665;-62
2023/07/13 11:13:57;;;;;;;5.03;1.30;;;;;;;24.91;40.24;100963.06;5027635;28;20668;-62
2023/07/13 11:16:23;;;;;;;3.78;1.17;;;;;;;24.91;39.94;100955.13;5034924;28;20049;-62
2023/07/13 11:19:26;;;;;;;3.78;1.15;;;;;;;25.00;40.60;100965.09;5032534;28;20036;-62
2023/07/13 11:22:02;;;;;;;2.78;1.00;;;;;;;24.96;40.14;100967.13;5018628;28;20482;-62
2023/07/13 11:24:51;;;;;;;4.80;1.10;;;;;;;24.84;39.78;100967.06;5033252;28;20048;-62
2023/07/13 11:27:32;;;;;;;5.72;1.30;;;;;;;24.89;40.09;100962.31;5045549;28;20037;-62
2023/07/13 11:30:20;;;;;;;3.80;1.05;;;;;;;24.87;38.70;100938.63;5033746;28;20033;-62
2023/07/13 11:32:50;;;;;;;2.03;0.60;;;;;;;24.75;40.02;100960.56;5029722;28;20140;-61